createdAt,value
2017-07-04T00:00:02.633Z,16.37
2017-07-04T00:01:01.895Z,16.39
2017-07-04T00:02:02.138Z,16.42
2017-07-04T00:03:01.803Z,16.29
2017-07-04T00:04:02.458Z,16.32
2017-07-04T00:05:02.882Z,16.39
2017-07-04T00:06:02.502Z,16.34
2017-07-04T00:07:01.790Z,16.32
2017-07-04T00:08:01.795Z,16.36
2017-07-04T00:09:02.312Z,16.3
2017-07-04T00:10:02.622Z,16.27
2017-07-04T00:11:02.156Z,16.33
2017-07-04T00:12:02.429Z,16.29
2017-07-04T00:13:01.771Z,16.37
2017-07-04T00:14:02.106Z,16.29
2017-07-04T00:15:02.116Z,16.3
2017-07-04T00:16:02.252Z,16.34
2017-07-04T00:17:02.164Z,16.29
2017-07-04T00:18:02.184Z,16.29
2017-07-04T00:19:01.755Z,16.44
2017-07-04T00:20:01.745Z,16.21
2017-07-04T00:21:02.073Z,16.29
2017-07-04T00:22:02.079Z,16.29
2017-07-04T00:23:02.389Z,16.3
2017-07-04T00:24:02.059Z,16.29
2017-07-04T00:25:02.320Z,16.26
2017-07-04T00:26:02.709Z,16.27
2017-07-04T00:27:01.744Z,16.3
2017-07-04T00:28:02.046Z,16.32
2017-07-04T00:29:02.062Z,16.29
2017-07-04T00:30:01.724Z,16.29
2017-07-04T00:31:01.705Z,16.27
2017-07-04T00:32:01.707Z,16.26
2017-07-04T00:33:02.033Z,16.25
2017-07-04T00:34:01.698Z,16.22
2017-07-04T00:35:02.021Z,16.22
2017-07-04T00:36:01.726Z,16.22
2017-07-04T00:37:02.017Z,16.13
2017-07-04T00:38:02.031Z,16.21
2017-07-04T00:39:02.350Z,16.18
2017-07-04T00:40:02.306Z,16.18
2017-07-04T00:41:02.034Z,16.11
2017-07-04T00:42:01.995Z,16.13
2017-07-04T00:43:02.325Z,16.16
2017-07-04T00:44:01.660Z,16.18
2017-07-04T00:45:01.657Z,16.11
2017-07-04T00:46:01.651Z,16.07
2017-07-04T00:47:01.651Z,16.13
2017-07-04T00:48:01.985Z,16.16
2017-07-04T00:49:01.985Z,16.1
2017-07-04T00:50:01.968Z,16.1
2017-07-04T00:51:01.633Z,16.07
2017-07-04T00:52:01.644Z,16.16
2017-07-04T00:53:02.296Z,16.13
2017-07-04T00:54:01.624Z,16.1
2017-07-04T00:55:01.971Z,16.11
2017-07-04T00:56:01.617Z,16.07
2017-07-04T00:57:01.947Z,16.08
2017-07-04T00:58:01.945Z,16.1
2017-07-04T00:59:01.628Z,16.04
2017-07-04T01:00:01.604Z,16.04
2017-07-04T01:01:01.598Z,16.08
2017-07-04T01:02:01.925Z,15.95
2017-07-04T01:03:02.255Z,16.07
2017-07-04T01:04:01.587Z,16.04
2017-07-04T01:05:01.928Z,16.06
2017-07-04T01:06:01.599Z,16.02
2017-07-04T01:07:01.576Z,16.1
2017-07-04T01:08:01.899Z,16.04
2017-07-04T01:09:01.585Z,16.06
2017-07-04T01:10:01.898Z,16.02
2017-07-04T01:11:01.895Z,16.14
2017-07-04T01:12:01.556Z,16.11
2017-07-04T01:13:01.577Z,16.17
2017-07-04T01:14:01.912Z,16.11
2017-07-04T01:15:01.560Z,16.16
2017-07-04T01:16:01.870Z,16.18
2017-07-04T01:17:01.866Z,16.13
2017-07-04T01:18:01.539Z,16.18
2017-07-04T01:19:01.544Z,16.13
2017-07-04T01:20:01.858Z,16.21
2017-07-04T01:21:01.524Z,16.21
2017-07-04T01:22:01.520Z,16.26
2017-07-04T01:23:01.527Z,16.21
2017-07-04T01:24:01.859Z,16.14
2017-07-04T01:25:01.508Z,16.25
2017-07-04T01:26:01.517Z,16.25
2017-07-04T01:27:01.501Z,16.27
2017-07-04T01:28:02.173Z,16.27
2017-07-04T01:29:01.511Z,16.26
2017-07-04T01:30:01.488Z,16.27
2017-07-04T01:31:02.145Z,16.26
2017-07-04T01:32:01.483Z,16.27
2017-07-04T01:33:02.137Z,16.29
2017-07-04T01:34:02.160Z,16.26
2017-07-04T01:35:01.471Z,16.26
2017-07-04T01:36:01.794Z,16.27
2017-07-04T01:37:01.792Z,16.3
2017-07-04T01:38:01.790Z,16.34
2017-07-04T01:39:01.472Z,16.32
2017-07-04T01:40:02.128Z,16.27
2017-07-04T01:41:01.792Z,16.29
2017-07-04T01:42:02.111Z,16.29
2017-07-04T01:43:01.786Z,16.3
2017-07-04T01:44:01.438Z,16.34
2017-07-04T01:45:01.767Z,16.27
2017-07-04T01:46:01.430Z,16.3
2017-07-04T01:47:01.443Z,16.29
2017-07-04T01:48:01.421Z,16.27
2017-07-04T01:49:01.420Z,16.32
2017-07-04T01:50:01.427Z,16.34
2017-07-04T01:51:01.409Z,16.17
2017-07-04T01:52:01.734Z,16.27
2017-07-04T01:53:01.729Z,16.25
2017-07-04T01:54:01.396Z,16.25
2017-07-04T01:55:01.414Z,16.25
2017-07-04T01:56:02.050Z,16.18
2017-07-04T01:57:01.386Z,16.18
2017-07-04T01:58:01.725Z,16.16
2017-07-04T01:59:01.706Z,16.06
2017-07-04T02:00:02.036Z,16.06
2017-07-04T02:01:01.710Z,16.06
2017-07-04T02:02:01.368Z,16.04
2017-07-04T02:03:01.690Z,15.99
2017-07-04T02:04:01.359Z,15.95
2017-07-04T02:05:01.714Z,16
2017-07-04T02:06:01.681Z,15.89
2017-07-04T02:07:01.679Z,15.93
2017-07-04T02:08:01.706Z,15.81
2017-07-04T02:09:02.003Z,15.83
2017-07-04T02:10:01.684Z,15.93
2017-07-04T02:11:01.997Z,15.91
2017-07-04T02:12:01.329Z,15.84
2017-07-04T02:13:01.326Z,15.88
2017-07-04T02:14:01.668Z,15.92
2017-07-04T02:15:01.319Z,15.88
2017-07-04T02:16:01.640Z,15.77
2017-07-04T02:17:01.639Z,15.88
2017-07-04T02:18:01.634Z,15.74
2017-07-04T02:19:01.960Z,15.71
2017-07-04T02:20:01.958Z,15.81
2017-07-04T02:21:01.642Z,15.73
2017-07-04T02:22:01.643Z,15.74
2017-07-04T02:23:01.631Z,15.74
2017-07-04T02:24:01.609Z,15.77
2017-07-04T02:25:01.608Z,15.73
2017-07-04T02:26:01.604Z,15.74
2017-07-04T02:27:01.279Z,15.71
2017-07-04T02:28:01.593Z,15.62
2017-07-04T02:29:01.922Z,15.67
2017-07-04T02:30:01.258Z,15.63
2017-07-04T02:31:01.263Z,15.59
2017-07-04T02:32:01.252Z,15.55
2017-07-04T02:33:01.245Z,15.53
2017-07-04T02:34:01.589Z,15.53
2017-07-04T02:35:01.564Z,15.6
2017-07-04T02:36:01.232Z,15.45
2017-07-04T02:37:01.577Z,15.43
2017-07-04T02:38:01.555Z,15.41
2017-07-04T02:39:01.550Z,15.41
2017-07-04T02:40:01.217Z,15.44
2017-07-04T02:41:01.216Z,15.27
2017-07-04T02:42:01.537Z,15.41
2017-07-04T02:43:01.205Z,15.35
2017-07-04T02:44:01.200Z,15.33
2017-07-04T02:45:01.856Z,15.37
2017-07-04T02:46:01.193Z,15.37
2017-07-04T02:47:01.215Z,15.35
2017-07-04T02:48:01.510Z,15.23
2017-07-04T02:49:01.876Z,15.27
2017-07-04T02:50:01.520Z,15.27
2017-07-04T02:51:01.590Z,15.27
2017-07-04T02:52:01.515Z,15.2
2017-07-04T02:53:01.492Z,15.23
2017-07-04T02:54:01.485Z,15.22
2017-07-04T02:55:01.484Z,15.23
2017-07-04T02:56:01.477Z,15.22
2017-07-04T02:57:01.164Z,15.18
2017-07-04T02:58:01.157Z,15.2
2017-07-04T02:59:01.398Z,15.18
2017-07-04T03:00:01.478Z,15.1
2017-07-04T03:01:01.141Z,15.08
2017-07-04T03:02:01.455Z,15.01
2017-07-04T03:03:01.121Z,15.05
2017-07-04T03:04:01.114Z,15.07
2017-07-04T03:05:01.479Z,15.04
2017-07-04T03:06:01.778Z,15.02
2017-07-04T03:07:01.440Z,15.01
2017-07-04T03:08:01.426Z,15.04
2017-07-04T03:09:01.092Z,15
2017-07-04T03:10:01.420Z,15
2017-07-04T03:11:01.744Z,15
2017-07-04T03:12:01.426Z,15.01
2017-07-04T03:13:01.422Z,15.01
2017-07-04T03:14:01.752Z,15.02
2017-07-04T03:15:01.503Z,14.95
2017-07-04T03:16:01.063Z,14.98
2017-07-04T03:17:01.094Z,15
2017-07-04T03:18:01.380Z,14.97
2017-07-04T03:19:01.058Z,14.94
2017-07-04T03:20:01.513Z,15
2017-07-04T03:21:01.794Z,14.98
2017-07-04T03:22:01.408Z,15.02
2017-07-04T03:23:01.700Z,14.9
2017-07-04T03:24:01.686Z,14.9
2017-07-04T03:25:01.366Z,14.97
2017-07-04T03:26:01.018Z,15
2017-07-04T03:27:01.017Z,14.97
2017-07-04T03:28:01.338Z,14.97
2017-07-04T03:29:01.689Z,15.02
2017-07-04T03:30:01.017Z,14.93
2017-07-04T03:31:01.321Z,14.94
2017-07-04T03:32:01.010Z,14.95
2017-07-04T03:33:01.330Z,14.95
2017-07-04T03:34:01.643Z,14.95
2017-07-04T03:35:00.976Z,15.02
2017-07-04T03:36:00.977Z,15
2017-07-04T03:37:01.299Z,15
2017-07-04T03:38:00.967Z,15.02
2017-07-04T03:39:00.966Z,15.02
2017-07-04T03:40:01.614Z,15.08
2017-07-04T03:41:01.304Z,15.05
2017-07-04T03:42:01.277Z,15.13
2017-07-04T03:43:01.285Z,15.12
2017-07-04T03:44:00.937Z,15.18
2017-07-04T03:45:01.264Z,15.22
2017-07-04T03:46:00.938Z,15.25
2017-07-04T03:47:00.927Z,15.31
2017-07-04T03:48:00.948Z,15.3
2017-07-04T03:49:02.350Z,15.38
2017-07-04T03:50:01.243Z,15.34
2017-07-04T03:51:01.331Z,15.41
2017-07-04T03:52:00.904Z,15.41
2017-07-04T03:53:01.243Z,15.4
2017-07-04T03:54:01.535Z,15.44
2017-07-04T03:55:01.220Z,15.38
2017-07-04T03:56:00.886Z,15.45
2017-07-04T03:57:00.882Z,15.53
2017-07-04T03:58:00.903Z,15.47
2017-07-04T03:59:00.884Z,15.52
2017-07-04T04:00:00.867Z,15.47
2017-07-04T04:01:00.863Z,15.51
2017-07-04T04:02:01.220Z,15.58
2017-07-04T04:03:01.539Z,15.58
2017-07-04T04:04:01.180Z,15.53
2017-07-04T04:05:00.844Z,15.53
2017-07-04T04:06:00.853Z,15.49
2017-07-04T04:07:00.860Z,15.56
2017-07-04T04:08:00.831Z,15.62
2017-07-04T04:09:00.829Z,15.65
2017-07-04T04:10:00.826Z,15.63
2017-07-04T04:11:01.167Z,15.59
2017-07-04T04:12:01.160Z,15.62
2017-07-04T04:13:00.811Z,15.6
2017-07-04T04:14:00.807Z,15.62
2017-07-04T04:15:00.804Z,15.67
2017-07-04T04:16:01.487Z,15.67
2017-07-04T04:17:00.816Z,15.58
2017-07-04T04:18:01.117Z,15.68
2017-07-04T04:19:00.791Z,15.68
2017-07-04T04:20:00.784Z,15.71
2017-07-04T04:21:01.102Z,15.7
2017-07-04T04:22:01.102Z,15.74
2017-07-04T04:23:01.426Z,15.75
2017-07-04T04:24:01.095Z,15.67
2017-07-04T04:25:00.762Z,15.78
2017-07-04T04:26:01.082Z,15.77
2017-07-04T04:27:01.078Z,15.75
2017-07-04T04:28:00.747Z,15.84
2017-07-04T04:29:00.746Z,15.86
2017-07-04T04:30:01.102Z,15.84
2017-07-04T04:31:01.397Z,15.95
2017-07-04T04:32:00.732Z,15.99
2017-07-04T04:33:01.054Z,15.96
2017-07-04T04:34:00.725Z,16
2017-07-04T04:35:01.050Z,16
2017-07-04T04:36:00.714Z,15.95
2017-07-04T04:37:01.372Z,16.02
2017-07-04T04:38:00.704Z,16.06
2017-07-04T04:39:01.034Z,16.06
2017-07-04T04:40:00.717Z,16.08
2017-07-04T04:41:01.349Z,16.06
2017-07-04T04:42:00.689Z,16.1
2017-07-04T04:43:01.035Z,16.07
2017-07-04T04:44:01.009Z,16.07
2017-07-04T04:45:01.011Z,16.07
2017-07-04T04:46:00.676Z,16.08
2017-07-04T04:47:00.692Z,16.08
2017-07-04T04:48:00.665Z,15.92
2017-07-04T04:49:00.667Z,16.04
2017-07-04T04:50:00.993Z,16.07
2017-07-04T04:51:00.652Z,15.99
2017-07-04T04:52:01.334Z,16.07
2017-07-04T04:53:00.647Z,16.06
2017-07-04T04:54:00.642Z,16.08
2017-07-04T04:55:00.969Z,16.18
2017-07-04T04:56:00.976Z,16.13
2017-07-04T04:57:00.628Z,16.18
2017-07-04T04:58:01.293Z,16.17
2017-07-04T04:59:00.969Z,16.18
2017-07-04T05:00:00.951Z,16.16
2017-07-04T05:01:00.950Z,16.17
2017-07-04T05:02:00.610Z,16.21
2017-07-04T05:03:00.605Z,16.22
2017-07-04T05:04:00.934Z,16.13
2017-07-04T05:05:00.929Z,16.16
2017-07-04T05:06:00.922Z,16.21
2017-07-04T05:07:00.593Z,16.25
2017-07-04T05:08:00.586Z,16.29
2017-07-04T05:09:00.581Z,16.27
2017-07-04T05:10:00.586Z,16.26
2017-07-04T05:11:00.960Z,16.29
2017-07-04T05:12:00.573Z,16.33
2017-07-04T05:13:00.566Z,16.3
2017-07-04T05:14:00.566Z,16.26
2017-07-04T05:15:00.889Z,16.3
2017-07-04T05:16:00.557Z,16.32
2017-07-04T05:17:00.566Z,16.32
2017-07-04T05:18:00.550Z,16.17
2017-07-04T05:19:00.876Z,16.18
2017-07-04T05:20:00.541Z,16.37
2017-07-04T05:21:00.865Z,16.25
2017-07-04T05:22:00.559Z,16.25
2017-07-04T05:23:00.536Z,16.18
2017-07-04T05:24:00.527Z,16.22
2017-07-04T05:25:00.854Z,16.18
2017-07-04T05:26:00.848Z,16.16
2017-07-04T05:27:00.841Z,16.25
2017-07-04T05:28:00.845Z,16.27
2017-07-04T05:29:00.842Z,16.33
2017-07-04T05:30:00.830Z,16.22
2017-07-04T05:31:00.514Z,16.25
2017-07-04T05:32:00.860Z,16.21
2017-07-04T05:33:00.822Z,16.22
2017-07-04T05:34:00.493Z,16.14
2017-07-04T05:35:00.816Z,16.21
2017-07-04T05:36:00.810Z,16.1
2017-07-04T05:37:01.145Z,16.21
2017-07-04T05:38:00.492Z,16.14
2017-07-04T05:39:00.468Z,16.16
2017-07-04T05:40:00.466Z,16.21
2017-07-04T05:41:00.793Z,16.18
2017-07-04T05:42:00.472Z,16.17
2017-07-04T05:43:00.455Z,16.16
2017-07-04T05:44:00.778Z,16.16
2017-07-04T05:45:01.102Z,16.29
2017-07-04T05:46:00.461Z,16.29
2017-07-04T05:47:00.766Z,16.25
2017-07-04T05:48:00.767Z,16.26
2017-07-04T05:49:00.454Z,16.22
2017-07-04T05:50:00.427Z,16.26
2017-07-04T05:51:00.426Z,16.26
2017-07-04T05:52:00.753Z,16.21
2017-07-04T05:53:00.430Z,16.18
2017-07-04T05:54:00.752Z,16.26
2017-07-04T05:55:00.414Z,16.26
2017-07-04T05:56:00.735Z,16.29
2017-07-04T05:57:00.731Z,16.25
2017-07-04T05:58:00.725Z,16.33
2017-07-04T05:59:00.744Z,16.26
2017-07-04T06:00:00.729Z,16.3
2017-07-04T06:01:00.717Z,16.32
2017-07-04T06:02:00.710Z,16.34
2017-07-04T06:03:00.378Z,16.4
2017-07-04T06:04:00.704Z,16.39
2017-07-04T06:05:00.371Z,16.51
2017-07-04T06:06:00.701Z,16.49
2017-07-04T06:07:01.027Z,16.54
2017-07-04T06:08:00.361Z,16.58
2017-07-04T06:09:01.015Z,16.62
2017-07-04T06:10:00.682Z,16.63
2017-07-04T06:11:00.674Z,16.69
2017-07-04T06:12:00.352Z,16.7
2017-07-04T06:13:00.675Z,16.66
2017-07-04T06:14:00.669Z,16.72
2017-07-04T06:15:00.994Z,16.8
2017-07-04T06:16:00.333Z,16.82
2017-07-04T06:17:01.009Z,16.87
2017-07-04T06:18:00.986Z,16.87
2017-07-04T06:19:00.653Z,16.97
2017-07-04T06:20:00.986Z,17.03
2017-07-04T06:21:00.644Z,17.07
2017-07-04T06:22:00.644Z,17.12
2017-07-04T06:23:00.307Z,17
2017-07-04T06:24:00.631Z,17.07
2017-07-04T06:25:00.647Z,17.2
2017-07-04T06:26:00.644Z,17.28
2017-07-04T06:27:00.626Z,17.4
2017-07-04T06:28:00.953Z,17.47
2017-07-04T06:29:00.290Z,17.54
2017-07-04T06:30:00.285Z,17.57
2017-07-04T06:31:00.281Z,17.55
2017-07-04T06:32:00.609Z,17.63
2017-07-04T06:33:00.279Z,17.76
2017-07-04T06:34:00.275Z,17.94
2017-07-04T06:35:00.927Z,17.92
2017-07-04T06:36:00.270Z,18.03
2017-07-04T06:37:00.264Z,17.98
2017-07-04T06:38:00.264Z,18.02
2017-07-04T06:39:00.608Z,18.06
2017-07-04T06:40:00.258Z,18.17
2017-07-04T06:41:00.588Z,18.2
2017-07-04T06:42:00.267Z,18.2
2017-07-04T06:43:00.578Z,18.17
2017-07-04T06:44:00.576Z,18.29
2017-07-04T06:45:00.572Z,18.21
2017-07-04T06:46:00.575Z,18.14
2017-07-04T06:47:00.571Z,18.21
2017-07-04T06:48:00.564Z,18.16
2017-07-04T06:49:00.564Z,18.08
2017-07-04T06:50:00.236Z,18.06
2017-07-04T06:51:00.232Z,18.1
2017-07-04T06:52:00.228Z,18.01
2017-07-04T06:53:00.227Z,18.06
2017-07-04T06:54:00.225Z,18.03
2017-07-04T06:55:00.222Z,18.2
2017-07-04T06:56:00.547Z,18.13
2017-07-04T06:57:00.219Z,18.16
2017-07-04T06:58:00.544Z,18.14
2017-07-04T06:59:00.214Z,18.34
2017-07-04T07:00:00.213Z,18.26
2017-07-04T07:01:00.547Z,18.32
2017-07-04T07:02:00.547Z,18.35
2017-07-04T07:03:00.538Z,18.32
2017-07-04T07:04:00.200Z,18.44
2017-07-04T07:05:00.528Z,18.54
2017-07-04T07:06:00.198Z,18.81
2017-07-04T07:07:00.198Z,18.99
2017-07-04T07:08:00.194Z,19.17
2017-07-04T07:09:00.850Z,19.4
2017-07-04T07:10:00.519Z,19.52
2017-07-04T07:11:00.188Z,19.82
2017-07-04T07:12:00.195Z,19.95
2017-07-04T07:13:00.515Z,20.07
2017-07-04T07:14:00.185Z,20.11
2017-07-04T07:15:00.183Z,20.05
2017-07-04T07:16:00.537Z,20.11
2017-07-04T07:17:00.181Z,20.18
2017-07-04T07:18:00.177Z,20.19
2017-07-04T07:19:00.505Z,20.15
2017-07-04T07:20:00.515Z,20.11
2017-07-04T07:21:00.832Z,20.35
2017-07-04T07:22:00.868Z,20.4
2017-07-04T07:23:00.829Z,20.57
2017-07-04T07:24:00.500Z,20.72
2017-07-04T07:25:00.182Z,20.81
2017-07-04T07:26:00.551Z,21.01
2017-07-04T07:27:00.188Z,21.28
2017-07-04T07:28:00.170Z,21.28
2017-07-04T07:29:00.498Z,21.37
2017-07-04T07:30:00.170Z,21.4
2017-07-04T07:31:00.497Z,21.34
2017-07-04T07:32:00.499Z,21.45
2017-07-04T07:33:00.822Z,21.48
2017-07-04T07:34:00.167Z,21.66
2017-07-04T07:35:00.178Z,21.68
2017-07-04T07:36:00.512Z,21.71
2017-07-04T07:37:00.185Z,21.86
2017-07-04T07:38:00.163Z,21.83
2017-07-04T07:39:00.162Z,21.85
2017-07-04T07:40:00.841Z,21.74
2017-07-04T07:41:00.164Z,21.58
2017-07-04T07:42:00.172Z,21.45
2017-07-04T07:43:00.495Z,21.25
2017-07-04T07:44:00.500Z,21.11
2017-07-04T07:45:00.492Z,20.81
2017-07-04T07:46:00.162Z,20.68
2017-07-04T07:47:00.516Z,21.12
2017-07-04T07:48:00.514Z,21.86
2017-07-04T07:49:00.181Z,22.23
2017-07-04T07:50:00.163Z,22.36
2017-07-04T07:51:00.820Z,22.48
2017-07-04T07:52:00.171Z,22.97
2017-07-04T07:53:00.497Z,23.21
2017-07-04T07:54:00.824Z,23.28
2017-07-04T07:55:00.172Z,23.18
2017-07-04T07:56:00.492Z,22.85
2017-07-04T07:57:00.517Z,22.54
2017-07-04T07:58:00.172Z,22.3
2017-07-04T07:59:00.171Z,22.11
2017-07-04T08:00:00.499Z,22.05
2017-07-04T08:01:00.183Z,21.97
2017-07-04T08:02:00.540Z,21.89
2017-07-04T08:03:00.174Z,21.83
2017-07-04T08:04:00.501Z,21.74
2017-07-04T08:05:00.505Z,21.53
2017-07-04T08:06:00.502Z,21.43
2017-07-04T08:07:00.507Z,21.25
2017-07-04T08:08:00.506Z,21.23
2017-07-04T08:09:00.179Z,21.22
2017-07-04T08:10:00.511Z,21.46
2017-07-04T08:11:00.520Z,21.73
2017-07-04T08:12:00.191Z,22.14
2017-07-04T08:13:00.179Z,22.23
2017-07-04T08:14:00.202Z,22.36
2017-07-04T08:15:00.507Z,22.45
2017-07-04T08:16:00.835Z,22.51
2017-07-04T08:17:00.514Z,22.54
2017-07-04T08:18:00.512Z,22.45
2017-07-04T08:19:00.520Z,22.27
2017-07-04T08:20:00.184Z,22.23
2017-07-04T08:21:00.551Z,22.16
2017-07-04T08:22:00.535Z,22.23
2017-07-04T08:23:00.510Z,22.29
2017-07-04T08:24:00.519Z,22.38
2017-07-04T08:25:00.517Z,22.33
2017-07-04T08:26:00.520Z,22.3
2017-07-04T08:27:00.519Z,22.08
2017-07-04T08:28:00.551Z,21.97
2017-07-04T08:29:00.847Z,21.92
2017-07-04T08:30:00.521Z,21.99
2017-07-04T08:31:00.532Z,22.02
2017-07-04T08:32:00.524Z,22.12
2017-07-04T08:33:00.857Z,22.22
2017-07-04T08:34:00.854Z,22.36
2017-07-04T08:35:00.198Z,22.44
2017-07-04T08:36:00.200Z,22.48
2017-07-04T08:37:00.852Z,22.54
2017-07-04T08:38:00.552Z,22.57
2017-07-04T08:39:00.212Z,22.54
2017-07-04T08:40:00.225Z,22.63
2017-07-04T08:41:00.550Z,22.54
2017-07-04T08:42:00.860Z,22.54
2017-07-04T08:43:00.207Z,22.46
2017-07-04T08:44:00.865Z,22.38
2017-07-04T08:45:00.211Z,22.49
2017-07-04T08:46:00.212Z,22.3
2017-07-04T08:47:00.214Z,22.27
2017-07-04T08:48:00.212Z,22.26
2017-07-04T08:49:00.870Z,22.2
2017-07-04T08:50:00.551Z,22.24
2017-07-04T08:51:00.227Z,22.34
2017-07-04T08:52:00.216Z,22.33
2017-07-04T08:53:00.547Z,22.36
2017-07-04T08:54:00.265Z,22.45
2017-07-04T08:55:00.221Z,22.49
2017-07-04T08:56:00.545Z,22.69
2017-07-04T08:57:00.221Z,22.73
2017-07-04T08:58:00.223Z,22.76
2017-07-04T08:59:00.876Z,22.78
2017-07-04T09:00:00.555Z,22.64
2017-07-04T09:01:00.227Z,22.78
2017-07-04T09:02:00.574Z,22.81
2017-07-04T09:03:00.554Z,22.91
2017-07-04T09:04:00.231Z,22.96
2017-07-04T09:05:00.887Z,22.91
2017-07-04T09:06:00.234Z,22.97
2017-07-04T09:07:00.566Z,23.1
2017-07-04T09:08:00.233Z,23.21
2017-07-04T09:09:00.566Z,23.15
2017-07-04T09:10:00.565Z,23.06
2017-07-04T09:11:00.566Z,22.89
2017-07-04T09:12:00.893Z,22.67
2017-07-04T09:13:00.243Z,22.61
2017-07-04T09:14:00.569Z,22.6
2017-07-04T09:15:00.266Z,22.48
2017-07-04T09:16:00.571Z,22.49
2017-07-04T09:17:00.250Z,22.44
2017-07-04T09:18:00.573Z,22.46
2017-07-04T09:19:00.250Z,22.44
2017-07-04T09:20:00.580Z,22.57
2017-07-04T09:21:00.258Z,22.55
2017-07-04T09:22:00.910Z,22.41
2017-07-04T09:23:00.581Z,22.54
2017-07-04T09:24:00.932Z,22.71
2017-07-04T09:25:00.257Z,22.78
2017-07-04T09:26:00.604Z,23.01
2017-07-04T09:27:00.588Z,23.24
2017-07-04T09:28:00.262Z,23.19
2017-07-04T09:29:00.930Z,23.15
2017-07-04T09:30:00.266Z,22.97
2017-07-04T09:31:00.597Z,22.88
2017-07-04T09:32:00.925Z,22.84
2017-07-04T09:33:00.274Z,22.92
2017-07-04T09:34:00.281Z,23.03
2017-07-04T09:35:00.930Z,22.91
2017-07-04T09:36:00.601Z,22.73
2017-07-04T09:37:00.297Z,22.75
2017-07-04T09:38:00.282Z,22.79
2017-07-04T09:39:00.963Z,22.82
2017-07-04T09:40:00.610Z,22.92
2017-07-04T09:41:00.614Z,23.01
2017-07-04T09:42:00.608Z,23.06
2017-07-04T09:43:00.618Z,22.84
2017-07-04T09:44:00.304Z,22.79
2017-07-04T09:45:00.617Z,22.66
2017-07-04T09:46:00.308Z,22.54
2017-07-04T09:47:00.618Z,22.42
2017-07-04T09:48:00.635Z,22.39
2017-07-04T09:49:00.951Z,22.55
2017-07-04T09:50:00.624Z,22.63
2017-07-04T09:51:00.304Z,22.76
2017-07-04T09:52:00.309Z,22.76
2017-07-04T09:53:00.317Z,22.88
2017-07-04T09:54:00.325Z,23.01
2017-07-04T09:55:00.977Z,23
2017-07-04T09:56:00.307Z,22.96
2017-07-04T09:57:00.304Z,22.73
2017-07-04T09:58:00.304Z,22.48
2017-07-04T09:59:00.326Z,22.29
2017-07-04T10:00:00.309Z,22.14
2017-07-04T10:01:00.638Z,22.04
2017-07-04T10:02:00.972Z,21.77
2017-07-04T10:03:00.657Z,21.86
2017-07-04T10:04:00.978Z,21.94
2017-07-04T10:05:00.319Z,22.15
2017-07-04T10:06:00.640Z,22.41
2017-07-04T10:07:00.335Z,22.78
2017-07-04T10:08:00.318Z,23
2017-07-04T10:09:00.647Z,23.25
2017-07-04T10:10:01.033Z,23.34
2017-07-04T10:11:00.322Z,23.5
2017-07-04T10:12:00.321Z,23.64
2017-07-04T10:13:00.654Z,23.79
2017-07-04T10:14:00.652Z,23.78
2017-07-04T10:15:00.655Z,23.92
2017-07-04T10:16:00.326Z,24
2017-07-04T10:17:00.330Z,24.07
2017-07-04T10:18:00.986Z,23.99
2017-07-04T10:19:00.660Z,23.87
2017-07-04T10:20:00.673Z,23.63
2017-07-04T10:21:00.336Z,23.34
2017-07-04T10:22:00.673Z,23
2017-07-04T10:23:00.341Z,22.61
2017-07-04T10:24:00.667Z,22.36
2017-07-04T10:25:00.670Z,22.09
2017-07-04T10:26:00.344Z,21.86
2017-07-04T10:27:00.672Z,21.59
2017-07-04T10:28:00.684Z,21.4
2017-07-04T10:29:00.345Z,21.33
2017-07-04T10:30:00.679Z,21.28
2017-07-04T10:31:00.348Z,21.25
2017-07-04T10:32:00.352Z,21.22
2017-07-04T10:33:00.349Z,21.33
2017-07-04T10:34:00.681Z,21.46
2017-07-04T10:35:00.353Z,21.49
2017-07-04T10:36:00.354Z,21.66
2017-07-04T10:37:01.025Z,21.89
2017-07-04T10:38:00.683Z,21.92
2017-07-04T10:39:00.356Z,21.99
2017-07-04T10:40:00.684Z,22.26
2017-07-04T10:41:00.729Z,22.44
2017-07-04T10:42:00.356Z,22.55
2017-07-04T10:43:00.708Z,22.51
2017-07-04T10:44:00.362Z,22.55
2017-07-04T10:45:00.360Z,22.52
2017-07-04T10:46:00.687Z,22.73
2017-07-04T10:47:00.684Z,22.92
2017-07-04T10:48:00.694Z,23.1
2017-07-04T10:49:00.362Z,23.19
2017-07-04T10:50:00.362Z,23.22
2017-07-04T10:51:00.366Z,23.38
2017-07-04T10:52:00.364Z,23.53
2017-07-04T10:53:00.401Z,23.48
2017-07-04T10:54:00.701Z,23.48
2017-07-04T10:55:00.368Z,23.66
2017-07-04T10:56:00.696Z,23.66
2017-07-04T10:57:00.370Z,23.67
2017-07-04T10:58:00.373Z,23.63
2017-07-04T10:59:00.372Z,23.55
2017-07-04T11:00:00.391Z,23.64
2017-07-04T11:01:00.375Z,23.63
2017-07-04T11:02:00.378Z,23.6
2017-07-04T11:03:00.378Z,23.66
2017-07-04T11:04:00.379Z,23.5
2017-07-04T11:05:00.381Z,23.44
2017-07-04T11:06:00.392Z,23.41
2017-07-04T11:07:00.400Z,23.34
2017-07-04T11:08:00.397Z,23.32
2017-07-04T11:09:01.058Z,23.04
2017-07-04T11:10:00.386Z,22.78
2017-07-04T11:11:00.391Z,22.57
2017-07-04T11:12:00.717Z,22.36
2017-07-04T11:13:00.393Z,22.27
2017-07-04T11:14:00.719Z,22.26
2017-07-04T11:15:00.723Z,22.23
2017-07-04T11:16:01.051Z,22.33
2017-07-04T11:17:00.397Z,22.51
2017-07-04T11:18:00.398Z,22.64
2017-07-04T11:19:01.056Z,22.69
2017-07-04T11:20:00.729Z,22.61
2017-07-04T11:21:00.403Z,22.64
2017-07-04T11:22:00.730Z,22.52
2017-07-04T11:23:00.733Z,22.48
2017-07-04T11:24:00.732Z,22.33
2017-07-04T11:25:00.405Z,22.18
2017-07-04T11:26:00.412Z,22
2017-07-04T11:27:00.408Z,21.8
2017-07-04T11:28:00.744Z,21.66
2017-07-04T11:29:00.747Z,21.51
2017-07-04T11:30:00.746Z,21.28
2017-07-04T11:31:00.432Z,21.18
2017-07-04T11:32:01.068Z,21
2017-07-04T11:33:01.069Z,20.94
2017-07-04T11:34:00.418Z,20.82
2017-07-04T11:35:00.416Z,20.81
2017-07-04T11:36:00.745Z,20.81
2017-07-04T11:37:00.418Z,20.72
2017-07-04T11:38:00.746Z,20.74
2017-07-04T11:39:01.095Z,20.75
2017-07-04T11:40:00.764Z,20.82
2017-07-04T11:41:00.419Z,20.98
2017-07-04T11:42:00.443Z,21.18
2017-07-04T11:43:00.422Z,21.27
2017-07-04T11:44:00.418Z,21.4
2017-07-04T11:45:01.073Z,21.61
2017-07-04T11:46:00.748Z,21.85
2017-07-04T11:47:00.419Z,22.08
2017-07-04T11:48:00.444Z,22.27
2017-07-04T11:49:00.477Z,22.29
2017-07-04T11:50:00.753Z,22.52
2017-07-04T11:51:01.079Z,22.49
2017-07-04T11:52:00.422Z,22.69
2017-07-04T11:53:00.425Z,22.59
2017-07-04T11:54:01.083Z,22.52
2017-07-04T11:55:01.109Z,22.49
2017-07-04T11:56:00.760Z,22.46
2017-07-04T11:57:00.759Z,22.45
2017-07-04T11:58:00.427Z,22.27
2017-07-04T11:59:00.428Z,22.14
2017-07-04T12:00:00.775Z,22.08
2017-07-04T12:01:00.438Z,21.99
2017-07-04T12:02:01.084Z,22
2017-07-04T12:03:00.434Z,22.04
2017-07-04T12:04:00.433Z,22.04
2017-07-04T12:05:00.765Z,21.99
2017-07-04T12:06:01.098Z,21.93
2017-07-04T12:07:00.798Z,22.08
2017-07-04T12:08:00.781Z,22.11
2017-07-04T12:09:00.765Z,22.26
2017-07-04T12:10:00.437Z,22.34
2017-07-04T12:11:00.440Z,22.41
2017-07-04T12:12:00.441Z,22.59
2017-07-04T12:13:00.439Z,22.81
2017-07-04T12:14:01.101Z,22.97
2017-07-04T12:15:00.442Z,23.14
2017-07-04T12:16:00.443Z,23.12
2017-07-04T12:17:01.103Z,23.24
2017-07-04T12:18:00.446Z,23.28
2017-07-04T12:19:00.464Z,23.22
2017-07-04T12:20:00.450Z,23.26
2017-07-04T12:21:00.781Z,23.35
2017-07-04T12:22:01.107Z,23.47
2017-07-04T12:23:00.455Z,23.55
2017-07-04T12:24:00.454Z,23.75
2017-07-04T12:25:00.786Z,23.94
2017-07-04T12:26:00.470Z,23.93
2017-07-04T12:27:00.786Z,23.93
2017-07-04T12:28:00.463Z,23.87
2017-07-04T12:29:00.464Z,23.79
2017-07-04T12:30:00.483Z,23.78
2017-07-04T12:31:00.819Z,23.75
2017-07-04T12:32:00.471Z,23.62
2017-07-04T12:33:01.156Z,23.48
2017-07-04T12:34:00.807Z,23.42
2017-07-04T12:35:01.138Z,23.38
2017-07-04T12:36:00.843Z,23.35
2017-07-04T12:37:00.482Z,23.24
2017-07-04T12:38:00.839Z,23.12
2017-07-04T12:39:00.812Z,23.01
2017-07-04T12:40:00.817Z,22.96
2017-07-04T12:41:01.146Z,22.84
2017-07-04T12:42:00.488Z,22.61
2017-07-04T12:43:00.818Z,22.51
2017-07-04T12:44:00.496Z,22.45
2017-07-04T12:45:01.169Z,22.44
2017-07-04T12:46:00.496Z,22.45
2017-07-04T12:47:01.152Z,22.34
2017-07-04T12:48:00.829Z,22.24
2017-07-04T12:49:00.831Z,22.23
2017-07-04T12:50:00.831Z,22.26
2017-07-04T12:51:00.506Z,22.08
2017-07-04T12:52:00.525Z,22.02
2017-07-04T12:53:00.835Z,22
2017-07-04T12:54:00.507Z,22.05
2017-07-04T12:55:00.852Z,22.07
2017-07-04T12:56:00.838Z,22.02